Time;durP1;ratioP1;P1;durP2;ratioP2;P2;SDS_P1;SDS_P2;PMS_P1;PMS_P2;Temp;Humidity;BMP_temperature;BMP_pressure;BME280_temperature;BME280_humidity;BME280_pressure;Samples;Min_cycle;Max_cycle;Signal;HPM_P1;HPM_P2
2023/08/25 04:47:15;;;;;;;8.40;4.03;;;;;;;;;;5117797;23;20614;-75
2023/08/25 04:49:41;;;;;;;10.67;5.10;;;;;;;;;;4973268;28;20540;-75
2023/08/25 04:52:07;;;;;;;9.53;4.20;;;;;;;;;;4969626;28;20416;-75
2023/08/25 04:54:33;;;;;;;12.27;4.80;;;;;;;;;;4971805;28;20544;-75
2023/08/25 04:56:59;;;;;;;7.50;4.87;;;;;;;;;;4953831;29;20451;-75
2023/08/25 04:59:25;;;;;;;11.10;4.83;;;;;;;;;;4953928;29;20409;-75
2023/08/25 05:01:51;;;;;;;10.90;5.43;;;;;;;;;;4953843;29;20499;-75
2023/08/25 05:04:17;;;;;;;12.37;5.30;;;;;;;;;;4953118;29;20870;-76
2023/08/25 05:06:43;;;;;;;10.07;4.80;;;;;;;;;;4953677;29;20441;-76
2023/08/25 05:09:09;;;;;;;10.37;5.20;;;;;;;;;;4953399;29;20479;-76
2023/08/25 05:11:35;;;;;;;13.40;5.23;;;;;;;;;;4953685;28;20710;-76
2023/08/25 05:14:02;;;;;;;8.17;4.87;;;;;;;;;;4939543;29;20453;-76
2023/08/25 05:16:28;;;;;;;14.80;4.87;;;;;;;;;;4934541;29;20472;-75
2023/08/25 05:18:54;;;;;;;13.47;5.60;;;;;;;;;;4948760;29;20406;-75
2023/08/25 05:21:20;;;;;;;11.83;4.57;;;;;;;;;;4959450;29;20421;-75
2023/08/25 05:23:46;;;;;;;10.63;4.93;;;;;;;;;;4970568;28;20457;-75
2023/08/25 05:26:13;;;;;;;6.73;5.00;;;;;;;;;;4971068;29;20512;-75
2023/08/25 05:28:39;;;;;;;13.80;4.60;;;;;;;;;;4960085;29;20493;-75
2023/08/25 05:31:04;;;;;;;14.40;5.20;;;;;;;;;;4947601;29;20405;-75
2023/08/25 05:33:30;;;;;;;7.90;4.67;;;;;;;;;;4935248;29;20425;-75
2023/08/25 05:35:56;;;;;;;11.27;5.07;;;;;;;;;;4948475;28;20453;-75
2023/08/25 05:38:22;;;;;;;10.30;5.10;;;;;;;;;;4934208;29;20426;-75
2023/08/25 05:40:48;;;;;;;11.10;5.00;;;;;;;;;;4934222;29;20982;-76
2023/08/25 05:43:14;;;;;;;11.07;5.20;;;;;;;;;;4934696;29;20420;-76
2023/08/25 05:45:40;;;;;;;11.63;4.87;;;;;;;;;;4943474;29;20460;-76
2023/08/25 05:48:06;;;;;;;9.13;4.80;;;;;;;;;;4956795;29;20885;-76
2023/08/25 05:50:32;;;;;;;13.67;6.13;;;;;;;;;;4955774;29;20436;-75
2023/08/25 05:52:58;;;;;;;13.63;5.90;;;;;;;;;;4957077;29;20412;-74
2023/08/25 05:55:26;;;;;;;9.60;5.30;;;;;;;;;;4952812;29;20444;-75
2023/08/25 05:57:52;;;;;;;11.40;5.00;;;;;;;;;;4937789;29;20410;-74
2023/08/25 06:00:18;;;;;;;15.00;5.70;;;;;;;;;;4938028;29;20946;-75
2023/08/25 06:02:44;;;;;;;9.80;5.27;;;;;;;;;;4937998;29;20413;-74
2023/08/25 06:05:10;;;;;;;13.83;5.27;;;;;;;;;;4937537;29;20531;-75
2023/08/25 06:07:36;;;;;;;10.53;4.00;;;;;;;;;;4937695;29;20488;-74
2023/08/25 06:10:02;;;;;;;9.93;4.30;;;;;;;;;;4937352;29;20525;-74
2023/08/25 06:12:28;;;;;;;6.83;4.00;;;;;;;;;;4937810;29;20442;-74
2023/08/25 06:14:54;;;;;;;8.10;4.43;;;;;;;;;;4937374;29;20468;-74
2023/08/25 06:17:20;;;;;;;6.60;4.63;;;;;;;;;;4937666;29;20437;-74
2023/08/25 06:19:47;;;;;;;7.43;3.83;;;;;;;;;;4937121;29;20417;-74
2023/08/25 06:22:13;;;;;;;7.90;4.30;;;;;;;;;;4937530;29;20430;-74
2023/08/25 06:24:39;;;;;;;11.93;4.77;;;;;;;;;;4937406;29;20465;-75
2023/08/25 06:27:05;;;;;;;12.70;4.63;;;;;;;;;;4937179;29;20433;-74
2023/08/25 06:29:31;;;;;;;7.27;4.57;;;;;;;;;;4936904;29;20489;-75
2023/08/25 06:31:57;;;;;;;8.00;4.03;;;;;;;;;;4941756;29;20783;-74
2023/08/25 06:34:23;;;;;;;12.53;4.80;;;;;;;;;;4956257;29;20990;-74
2023/08/25 06:36:49;;;;;;;7.87;3.97;;;;;;;;;;4956579;29;20515;-74
2023/08/25 06:39:15;;;;;;;7.70;4.63;;;;;;;;;;4956566;29;20417;-74
2023/08/25 06:41:41;;;;;;;6.63;4.30;;;;;;;;;;4953180;29;20466;-75
2023/08/25 06:44:07;;;;;;;10.63;5.37;;;;;;;;;;4937408;29;20484;-75
2023/08/25 06:46:33;;;;;;;8.17;5.03;;;;;;;;;;4936820;29;20449;-75
2023/08/25 06:48:59;;;;;;;8.00;4.83;;;;;;;;;;4936598;29;20500;-75
2023/08/25 06:51:25;;;;;;;15.00;4.73;;;;;;;;;;4937398;29;20838;-75
2023/08/25 06:53:51;;;;;;;11.27;5.80;;;;;;;;;;4937622;29;20437;-74
2023/08/25 06:56:17;;;;;;;8.37;5.40;;;;;;;;;;4936054;29;20469;-75
2023/08/25 06:58:43;;;;;;;9.97;5.37;;;;;;;;;;4936595;29;20418;-75
2023/08/25 07:01:10;;;;;;;16.70;5.37;;;;;;;;;;4936407;29;20428;-75
2023/08/25 07:03:36;;;;;;;9.37;5.37;;;;;;;;;;4948925;29;20546;-74
2023/08/25 07:06:05;;;;;;;9.40;5.97;;;;;;;;;;4955564;29;20942;-74
2023/08/25 07:08:31;;;;;;;11.53;5.80;;;;;;;;;;4955319;28;20412;-74
2023/08/25 07:10:57;;;;;;;8.63;5.30;;;;;;;;;;4955289;29;20417;-74
2023/08/25 07:13:23;;;;;;;8.87;5.50;;;;;;;;;;4955819;29;20423;-74
2023/08/25 07:15:50;;;;;;;8.53;5.57;;;;;;;;;;4941616;29;20817;-73
2023/08/25 07:18:16;;;;;;;10.70;6.23;;;;;;;;;;4945106;29;20785;-73
2023/08/25 07:20:42;;;;;;;9.23;5.23;;;;;;;;;;4955594;29;20413;-72
2023/08/25 07:23:08;;;;;;;8.80;6.20;;;;;;;;;;4941679;29;20414;-72
2023/08/25 07:25:34;;;;;;;11.53;5.33;;;;;;;;;;4947252;29;21014;-73
2023/08/25 07:28:00;;;;;;;8.77;5.87;;;;;;;;;;4943521;29;20441;-74
2023/08/25 07:30:26;;;;;;;12.20;7.20;;;;;;;;;;4940150;29;20923;-73
2023/08/25 07:32:51;;;;;;;8.87;6.57;;;;;;;;;;4936489;29;20481;-73
2023/08/25 07:35:18;;;;;;;10.97;7.30;;;;;;;;;;4937370;29;20436;-73
2023/08/25 07:37:44;;;;;;;15.40;7.13;;;;;;;;;;4950156;29;20456;-73
2023/08/25 07:40:10;;;;;;;15.50;7.00;;;;;;;;;;4955302;28;20413;-74
2023/08/25 07:42:36;;;;;;;12.77;7.87;;;;;;;;;;4936818;29;20429;-73
2023/08/25 07:45:02;;;;;;;10.40;6.50;;;;;;;;;;4936396;29;20869;-73
2023/08/25 07:47:28;;;;;;;13.53;8.80;;;;;;;;;;4936383;29;20464;-73
2023/08/25 07:49:54;;;;;;;16.53;8.07;;;;;;;;;;4935916;29;20421;-73
2023/08/25 07:52:20;;;;;;;12.37;6.20;;;;;;;;;;4935751;29;20421;-73
2023/08/25 07:54:46;;;;;;;14.77;6.50;;;;;;;;;;4936874;29;20512;-73
2023/08/25 07:57:12;;;;;;;13.27;6.30;;;;;;;;;;4941564;29;20456;-73
2023/08/25 07:59:38;;;;;;;12.53;7.17;;;;;;;;;;4935900;29;20426;-72
2023/08/25 08:02:05;;;;;;;9.03;5.57;;;;;;;;;;4934871;29;20951;-71
2023/08/25 08:04:31;;;;;;;15.20;9.37;;;;;;;;;;4951323;29;20477;-73
2023/08/25 08:06:57;;;;;;;8.50;6.47;;;;;;;;;;4937402;28;20466;-72
2023/08/25 08:09:25;;;;;;;14.50;6.50;;;;;;;;;;4934811;29;20417;-72
2023/08/25 08:11:51;;;;;;;16.70;6.30;;;;;;;;;;4941051;29;20589;-72
2023/08/25 08:14:17;;;;;;;10.27;5.10;;;;;;;;;;4945567;29;20528;-72
2023/08/25 08:16:44;;;;;;;11.50;5.60;;;;;;;;;;4941869;29;20441;-73
2023/08/25 08:19:10;;;;;;;6.50;5.10;;;;;;;;;;4941539;29;20437;-73
2023/08/25 08:21:36;;;;;;;11.97;5.43;;;;;;;;;;4936681;29;20469;-71
2023/08/25 08:24:02;;;;;;;13.00;5.47;;;;;;;;;;4935476;29;20504;-72
2023/08/25 08:26:29;;;;;;;11.70;5.30;;;;;;;;;;4941835;29;20505;-72
2023/08/25 08:28:55;;;;;;;8.40;4.90;;;;;;;;;;4934408;29;20431;-72
2023/08/25 08:31:21;;;;;;;11.90;4.50;;;;;;;;;;4935223;29;20433;-72
2023/08/25 08:33:47;;;;;;;9.30;5.17;;;;;;;;;;4950070;28;20939;-72
2023/08/25 08:36:17;;;;;;;7.27;4.53;;;;;;;;;;4945579;29;20449;-72
2023/08/25 08:38:43;;;;;;;11.23;4.83;;;;;;;;;;4953937;29;20492;-72
2023/08/25 08:41:10;;;;;;;10.00;5.13;;;;;;;;;;4948413;29;21234;-72
2023/08/25 08:43:38;;;;;;;10.13;5.47;;;;;;;;;;4934706;29;20461;-72
2023/08/25 08:46:05;;;;;;;11.50;6.53;;;;;;;;;;4937066;29;20461;-74
2023/08/25 08:48:36;;;;;;;10.60;6.27;;;;;;;;;;4934389;29;20911;-73
2023/08/25 08:51:02;;;;;;;11.77;6.50;;;;;;;;;;4937928;29;20430;-73
2023/08/25 08:53:28;;;;;;;13.77;5.57;;;;;;;;;;4938264;29;20933;-74
2023/08/25 08:55:55;;;;;;;14.13;6.13;;;;;;;;;;4946282;29;20854;-73
2023/08/25 08:58:21;;;;;;;7.50;5.40;;;;;;;;;;4934024;29;20465;-74
2023/08/25 09:00:47;;;;;;;10.67;6.20;;;;;;;;;;4943412;29;20786;-73
2023/08/25 09:03:17;;;;;;;7.50;5.33;;;;;;;;;;4934090;29;20899;-74
2023/08/25 09:05:43;;;;;;;11.53;6.47;;;;;;;;;;4939571;29;20807;-72
2023/08/25 09:08:10;;;;;;;15.50;6.30;;;;;;;;;;4944585;29;20968;-73
2023/08/25 09:10:36;;;;;;;10.83;6.10;;;;;;;;;;4937372;29;20788;-73
2023/08/25 09:13:03;;;;;;;16.80;7.00;;;;;;;;;;4938081;29;20433;-73
2023/08/25 09:15:30;;;;;;;19.90;6.50;;;;;;;;;;4943657;29;20778;-73
2023/08/25 09:18:06;;;;;;;15.20;6.10;;;;;;;;;;4936095;29;20442;-72
2023/08/25 09:20:33;;;;;;;15.80;6.17;;;;;;;;;;4945774;29;20523;-72
2023/08/25 09:23:00;;;;;;;8.37;6.10;;;;;;;;;;4938048;29;20428;-72
2023/08/25 09:25:26;;;;;;;11.07;6.27;;;;;;;;;;4941636;29;20515;-74
2023/08/25 09:27:59;;;;;;;13.20;6.27;;;;;;;;;;4943354;29;20429;-73
2023/08/25 09:30:42;;;;;;;12.00;6.20;;;;;;;;;;4938425;29;20433;-73
2023/08/25 09:33:09;;;;;;;9.37;5.70;;;;;;;;;;4938021;29;20519;-72
2023/08/25 09:35:35;;;;;;;11.73;6.20;;;;;;;;;;4940198;29;20494;-73
2023/08/25 09:38:01;;;;;;;13.00;6.37;;;;;;;;;;4950593;29;20444;-73
2023/08/25 09:40:28;;;;;;;11.27;6.23;;;;;;;;;;4937615;29;20437;-72
2023/08/25 09:43:00;;;;;;;9.70;6.20;;;;;;;;;;4937901;29;20946;-74
2023/08/25 09:45:28;;;;;;;13.97;6.23;;;;;;;;;;4937786;29;20468;-74
2023/08/25 09:47:54;;;;;;;14.50;6.03;;;;;;;;;;4942051;29;20925;-74
2023/08/25 09:50:21;;;;;;;12.07;5.90;;;;;;;;;;4948978;29;20420;-74
2023/08/25 09:52:48;;;;;;;11.80;5.80;;;;;;;;;;4937529;29;20461;-74
2023/08/25 09:55:15;;;;;;;9.77;6.20;;;;;;;;;;4937503;29;20429;-74
2023/08/25 09:57:45;;;;;;;16.03;7.70;;;;;;;;;;4939745;29;20421;-74
2023/08/25 10:00:12;;;;;;;21.90;7.43;;;;;;;;;;4950574;28;20791;-74
2023/08/25 10:02:38;;;;;;;18.80;5.80;;;;;;;;;;4941632;29;20487;-74
2023/08/25 10:05:05;;;;;;;11.53;6.07;;;;;;;;;;4952850;29;20472;-74
2023/08/25 10:07:34;;;;;;;8.90;5.53;;;;;;;;;;4945369;29;20904;-74
2023/08/25 10:10:00;;;;;;;10.40;5.40;;;;;;;;;;4936435;29;20425;-74
2023/08/25 10:12:26;;;;;;;7.40;4.50;;;;;;;;;;4937199;29;20457;-75
2023/08/25 10:14:53;;;;;;;7.30;4.20;;;;;;;;;;4948563;29;20471;-75
2023/08/25 10:17:19;;;;;;;5.60;4.43;;;;;;;;;;4940955;28;20503;-75
2023/08/25 10:19:48;;;;;;;12.70;5.20;;;;;;;;;;4944855;29;20422;-75
2023/08/25 10:22:14;;;;;;;7.40;4.50;;;;;;;;;;4937261;29;20505;-74
2023/08/25 10:24:43;;;;;;;11.40;4.57;;;;;;;;;;4946255;29;20512;-75
2023/08/25 10:27:09;;;;;;;8.20;4.80;;;;;;;;;;4937023;29;20477;-74
2023/08/25 10:29:36;;;;;;;14.13;4.60;;;;;;;;;;4944452;28;20421;-74
2023/08/25 10:32:03;;;;;;;10.60;4.80;;;;;;;;;;4940829;29;20420;-74
2023/08/25 10:34:30;;;;;;;10.73;5.27;;;;;;;;;;4956432;28;20440;-74
2023/08/25 10:37:03;;;;;;;9.93;5.50;;;;;;;;;;4943949;28;20957;-74
2023/08/25 10:39:48;;;;;;;10.40;5.30;;;;;;;;;;4936892;29;20422;-74
2023/08/25 10:42:18;;;;;;;12.33;6.20;;;;;;;;;;4936539;29;20512;-71
2023/08/25 10:44:44;;;;;;;10.63;5.93;;;;;;;;;;4946771;29;20885;-72
2023/08/25 10:47:10;;;;;;;13.13;5.33;;;;;;;;;;4942396;29;21043;-72
2023/08/25 10:49:38;;;;;;;12.00;6.47;;;;;;;;;;4951716;29;20511;-71
2023/08/25 10:52:14;;;;;;;8.47;5.00;;;;;;;;;;4936446;29;20418;-72
2023/08/25 10:54:41;;;;;;;7.47;4.40;;;;;;;;;;4944867;29;20516;-71
2023/08/25 10:57:20;;;;;;;6.83;4.10;;;;;;;;;;4943222;29;20449;-72
2023/08/25 10:59:50;;;;;;;7.83;4.03;;;;;;;;;;4951754;29;20447;-71
2023/08/25 11:02:34;;;;;;;10.40;4.27;;;;;;;;;;4940208;29;20467;-71
2023/08/25 11:05:19;;;;;;;6.50;4.17;;;;;;;;;;4946603;29;20555;-72
2023/08/25 11:07:45;;;;;;;7.27;4.77;;;;;;;;;;4937170;29;20426;-72
2023/08/25 11:10:11;;;;;;;11.10;4.70;;;;;;;;;;4935983;29;20455;-70
2023/08/25 11:12:37;;;;;;;8.43;4.70;;;;;;;;;;4935830;29;20512;-72
2023/08/25 11:15:08;;;;;;;9.00;3.83;;;;;;;;;;4945161;29;20486;-73
2023/08/25 11:17:34;;;;;;;10.63;4.70;;;;;;;;;;4940261;28;20477;-73
2023/08/25 11:20:00;;;;;;;6.30;4.13;;;;;;;;;;4951583;29;21031;-73
2023/08/25 11:22:27;;;;;;;7.23;4.37;;;;;;;;;;4936851;29;20421;-73
2023/08/25 11:24:53;;;;;;;7.27;4.03;;;;;;;;;;4954866;28;20468;-74
2023/08/25 11:27:22;;;;;;;7.53;4.43;;;;;;;;;;4942667;29;20441;-73
2023/08/25 11:29:49;;;;;;;10.27;4.60;;;;;;;;;;4938397;29;20438;-72
2023/08/25 11:32:15;;;;;;;7.80;4.20;;;;;;;;;;4945218;28;20440;-73
2023/08/25 11:34:41;;;;;;;7.00;4.00;;;;;;;;;;4935638;29;20457;-74
2023/08/25 11:37:10;;;;;;;8.07;4.47;;;;;;;;;;4942680;29;20452;-73
2023/08/25 11:39:43;;;;;;;5.77;4.10;;;;;;;;;;4935594;29;20436;-73
2023/08/25 11:42:09;;;;;;;5.47;3.80;;;;;;;;;;4934941;29;20493;-74
2023/08/25 11:44:40;;;;;;;9.30;4.97;;;;;;;;;;4935889;29;20485;-74
2023/08/25 11:47:08;;;;;;;5.70;4.17;;;;;;;;;;4970740;23;21074;-72
2023/08/25 11:49:34;;;;;;;6.60;4.80;;;;;;;;;;4970785;28;20464;-72
2023/08/25 11:52:03;;;;;;;6.90;4.30;;;;;;;;;;4965793;28;20444;-72
2023/08/25 11:54:29;;;;;;;6.73;5.27;;;;;;;;;;4973195;28;20516;-72
2023/08/25 11:56:55;;;;;;;6.77;4.87;;;;;;;;;;4944192;29;20524;-72
2023/08/25 11:59:22;;;;;;;6.43;4.60;;;;;;;;;;4935294;29;20422;-72
2023/08/25 12:01:52;;;;;;;7.90;5.30;;;;;;;;;;4935516;29;20512;-73
2023/08/25 12:04:23;;;;;;;8.10;5.10;;;;;;;;;;4934084;29;20556;-72
2023/08/25 12:06:53;;;;;;;8.80;5.77;;;;;;;;;;4953634;29;20860;-73
2023/08/25 12:09:21;;;;;;;9.20;5.50;;;;;;;;;;4954485;29;20602;-72
2023/08/25 12:11:47;;;;;;;7.53;4.90;;;;;;;;;;4954383;29;20409;-72
2023/08/25 12:14:30;;;;;;;11.53;6.23;;;;;;;;;;4954057;29;20509;-75
2023/08/25 12:16:56;;;;;;;11.33;6.40;;;;;;;;;;4945478;29;20456;-73
2023/08/25 12:19:26;;;;;;;15.93;5.87;;;;;;;;;;4948664;29;20490;-74
2023/08/25 12:21:56;;;;;;;10.80;6.13;;;;;;;;;;4954678;28;20444;-73
2023/08/25 12:24:22;;;;;;;8.37;5.40;;;;;;;;;;4949886;29;20476;-73
2023/08/25 12:26:48;;;;;;;8.63;5.43;;;;;;;;;;4954143;29;20479;-73
2023/08/25 12:29:15;;;;;;;12.30;5.60;;;;;;;;;;4954729;29;20455;-74
2023/08/25 12:31:41;;;;;;;7.13;5.17;;;;;;;;;;4954824;28;20512;-74
2023/08/25 12:34:07;;;;;;;10.00;4.73;;;;;;;;;;4954214;29;20504;-72
2023/08/25 12:36:35;;;;;;;10.10;5.53;;;;;;;;;;4953453;28;20443;-74
2023/08/25 12:39:01;;;;;;;7.97;4.90;;;;;;;;;;4948933;28;20430;-75
2023/08/25 12:41:27;;;;;;;8.23;5.30;;;;;;;;;;4950644;29;20432;-74
2023/08/25 12:43:53;;;;;;;6.80;4.93;;;;;;;;;;4952977;29;20502;-74
2023/08/25 12:46:22;;;;;;;9.87;4.97;;;;;;;;;;4952478;29;20506;-74
2023/08/25 12:48:48;;;;;;;9.00;5.60;;;;;;;;;;4952423;28;20416;-74
2023/08/25 12:51:15;;;;;;;6.67;5.40;;;;;;;;;;4953451;29;20504;-74
2023/08/25 12:53:41;;;;;;;9.17;5.20;;;;;;;;;;4945351;28;20536;-74
2023/08/25 12:56:08;;;;;;;11.93;5.77;;;;;;;;;;4938735;29;20548;-75
2023/08/25 12:58:34;;;;;;;10.00;5.40;;;;;;;;;;4952141;29;20428;-73
2023/08/25 13:01:04;;;;;;;9.60;6.00;;;;;;;;;;4953672;29;20420;-75
2023/08/25 13:03:30;;;;;;;6.30;4.80;;;;;;;;;;4953296;28;20910;-74
2023/08/25 13:05:55;;;;;;;10.37;5.37;;;;;;;;;;4952592;29;20427;-74
2023/08/25 13:08:21;;;;;;;16.70;5.60;;;;;;;;;;4941338;29;20524;-73
2023/08/25 13:10:49;;;;;;;12.10;6.17;;;;;;;;;;4941017;29;20829;-74
2023/08/25 13:13:15;;;;;;;11.00;5.60;;;;;;;;;;4952523;28;20468;-74
2023/08/25 13:15:41;;;;;;;9.00;5.50;;;;;;;;;;4955437;29;20460;-75
2023/08/25 13:18:07;;;;;;;6.20;5.00;;;;;;;;;;4953343;29;20429;-73
2023/08/25 13:20:33;;;;;;;7.77;4.90;;;;;;;;;;4953869;29;20475;-74
2023/08/25 13:23:00;;;;;;;11.43;5.77;;;;;;;;;;4953868;29;20950;-75
2023/08/25 13:25:26;;;;;;;6.43;4.67;;;;;;;;;;4953890;29;20965;-74
2023/08/25 13:27:52;;;;;;;6.60;4.77;;;;;;;;;;4948759;29;20964;-74
2023/08/25 13:30:18;;;;;;;9.97;5.60;;;;;;;;;;4950639;29;20452;-75
2023/08/25 13:32:44;;;;;;;9.33;5.33;;;;;;;;;;4965515;29;20429;-75
2023/08/25 13:35:10;;;;;;;8.83;5.90;;;;;;;;;;4955483;29;20428;-75
2023/08/25 13:37:36;;;;;;;7.70;5.00;;;;;;;;;;4953269;29;20452;-74
2023/08/25 13:40:04;;;;;;;9.23;5.80;;;;;;;;;;4943161;29;20433;-74
2023/08/25 13:42:31;;;;;;;7.20;5.43;;;;;;;;;;4948004;29;20900;-75
2023/08/25 13:44:57;;;;;;;11.03;5.77;;;;;;;;;;4951266;28;20472;-75
2023/08/25 13:47:23;;;;;;;9.50;5.37;;;;;;;;;;4952997;29;20594;-75
2023/08/25 13:49:49;;;;;;;6.10;4.93;;;;;;;;;;4951415;29;20981;-75
2023/08/25 13:52:15;;;;;;;11.30;5.60;;;;;;;;;;4937636;29;20477;-75
2023/08/25 13:54:41;;;;;;;7.57;5.03;;;;;;;;;;4949861;29;20435;-73
2023/08/25 13:57:07;;;;;;;7.60;5.20;;;;;;;;;;4952994;29;20437;-74
2023/08/25 13:59:33;;;;;;;8.20;5.60;;;;;;;;;;4952418;29;20432;-74
2023/08/25 14:01:59;;;;;;;8.47;5.57;;;;;;;;;;4953536;29;20425;-72
2023/08/25 14:04:25;;;;;;;12.13;5.60;;;;;;;;;;4951376;28;20479;-75
2023/08/25 14:06:51;;;;;;;8.33;5.80;;;;;;;;;;4956263;29;20441;-74
2023/08/25 14:09:17;;;;;;;10.73;6.57;;;;;;;;;;4956176;29;20424;-75
2023/08/25 14:11:43;;;;;;;9.47;5.90;;;;;;;;;;4955389;29;20495;-76
2023/08/25 14:14:09;;;;;;;8.07;5.43;;;;;;;;;;4948036;29;20433;-76
2023/08/25 14:16:35;;;;;;;9.70;5.93;;;;;;;;;;4951214;29;20487;-74
2023/08/25 14:19:01;;;;;;;8.30;5.60;;;;;;;;;;4956139;29;20425;-74
2023/08/25 14:21:27;;;;;;;7.43;4.93;;;;;;;;;;4956132;28;20412;-74
2023/08/25 14:23:53;;;;;;;9.30;5.77;;;;;;;;;;4951130;29;20619;-74
2023/08/25 14:26:19;;;;;;;10.20;5.83;;;;;;;;;;4936991;29;20495;-73
2023/08/25 14:28:45;;;;;;;13.90;5.73;;;;;;;;;;4936717;29;20477;-73
2023/08/25 14:31:11;;;;;;;8.77;4.80;;;;;;;;;;4936991;29;20414;-73
2023/08/25 14:33:37;;;;;;;8.20;5.23;;;;;;;;;;4942555;29;20432;-73
2023/08/25 14:36:03;;;;;;;9.03;5.50;;;;;;;;;;4947146;29;20463;-73
2023/08/25 14:38:29;;;;;;;7.97;5.50;;;;;;;;;;4945705;29;20417;-73
2023/08/25 14:40:55;;;;;;;6.40;5.20;;;;;;;;;;4945654;29;20421;-73
2023/08/25 14:43:21;;;;;;;10.40;5.80;;;;;;;;;;4946102;29;20472;-73
2023/08/25 14:45:47;;;;;;;7.03;5.67;;;;;;;;;;4945729;29;20476;-73
2023/08/25 14:48:13;;;;;;;12.77;5.67;;;;;;;;;;4944085;29;20426;-73
2023/08/25 14:50:39;;;;;;;12.13;6.00;;;;;;;;;;4942809;29;20420;-73
2023/08/25 14:53:05;;;;;;;8.30;5.07;;;;;;;;;;4945379;29;20417;-73
2023/08/25 14:55:31;;;;;;;11.73;5.77;;;;;;;;;;4945112;29;20428;-73
2023/08/25 14:57:57;;;;;;;8.90;5.83;;;;;;;;;;4943012;29;20449;-73
2023/08/25 15:00:23;;;;;;;7.90;5.67;;;;;;;;;;4946843;29;20763;-73
2023/08/25 15:02:49;;;;;;;10.13;6.03;;;;;;;;;;4945326;29;20440;-74
2023/08/25 15:05:15;;;;;;;9.00;5.70;;;;;;;;;;4946853;29;20468;-73
2023/08/25 15:07:41;;;;;;;9.43;6.60;;;;;;;;;;4944416;29;20439;-73
2023/08/25 15:10:07;;;;;;;9.33;5.70;;;;;;;;;;4946880;29;20887;-73
2023/08/25 15:12:33;;;;;;;8.00;5.90;;;;;;;;;;4947767;29;20413;-72
2023/08/25 15:14:59;;;;;;;8.40;6.00;;;;;;;;;;4944712;29;20448;-73
2023/08/25 15:17:26;;;;;;;9.93;6.03;;;;;;;;;;4946047;29;20439;-76
2023/08/25 15:19:52;;;;;;;11.27;6.43;;;;;;;;;;4939884;28;20421;-73
2023/08/25 15:22:21;;;;;;;11.30;7.13;;;;;;;;;;4942532;29;20882;-73
2023/08/25 15:24:47;;;;;;;21.70;6.80;;;;;;;;;;4951934;29;20510;-73
2023/08/25 15:27:14;;;;;;;8.10;6.07;;;;;;;;;;4953937;29;20440;-73
2023/08/25 15:29:40;;;;;;;10.77;7.20;;;;;;;;;;4954200;28;20428;-73
2023/08/25 15:32:06;;;;;;;10.13;5.93;;;;;;;;;;4949232;29;20504;-74
2023/08/25 15:34:32;;;;;;;14.00;5.80;;;;;;;;;;4947561;29;20910;-73
2023/08/25 15:36:58;;;;;;;10.53;6.40;;;;;;;;;;4953685;29;20456;-73
2023/08/25 15:39:24;;;;;;;11.30;5.93;;;;;;;;;;4955135;29;20416;-73
2023/08/25 15:41:50;;;;;;;9.80;5.80;;;;;;;;;;4955756;29;20427;-73
2023/08/25 15:44:16;;;;;;;7.10;5.53;;;;;;;;;;4952226;29;20456;-73
2023/08/25 15:46:43;;;;;;;13.63;5.73;;;;;;;;;;4936025;29;20449;-73
2023/08/25 15:49:08;;;;;;;10.50;7.10;;;;;;;;;;4936102;29;20779;-73
2023/08/25 15:51:34;;;;;;;11.07;5.40;;;;;;;;;;4936234;29;20418;-74
2023/08/25 15:54:00;;;;;;;7.53;5.97;;;;;;;;;;4936217;29;20422;-74
2023/08/25 15:56:26;;;;;;;9.47;5.17;;;;;;;;;;4938551;29;20445;-73
2023/08/25 15:58:52;;;;;;;8.80;5.73;;;;;;;;;;4936083;29;20967;-74
2023/08/25 16:01:18;;;;;;;9.23;5.83;;;;;;;;;;4937407;29;20919;-74
2023/08/25 16:03:44;;;;;;;8.73;5.97;;;;;;;;;;4937498;29;20425;-73
2023/08/25 16:06:10;;;;;;;14.40;6.00;;;;;;;;;;4935425;29;20437;-73
2023/08/25 16:08:38;;;;;;;11.33;5.60;;;;;;;;;;4935405;29;20414;-73
2023/08/25 16:11:06;;;;;;;8.60;5.77;;;;;;;;;;4947287;29;20455;-73
2023/08/25 16:13:34;;;;;;;9.10;5.70;;;;;;;;;;4954533;28;20413;-74
2023/08/25 16:16:00;;;;;;;9.37;5.83;;;;;;;;;;4959739;28;20496;-73
2023/08/25 16:18:26;;;;;;;10.47;6.00;;;;;;;;;;4956963;29;20413;-73
2023/08/25 16:20:53;;;;;;;13.20;6.33;;;;;;;;;;4954731;29;20409;-73
2023/08/25 16:23:19;;;;;;;11.17;6.80;;;;;;;;;;4952876;29;20419;-74
2023/08/25 16:25:45;;;;;;;9.33;5.97;;;;;;;;;;4952486;29;20469;-74
2023/08/25 16:28:12;;;;;;;7.50;4.80;;;;;;;;;;4952862;28;20464;-73
2023/08/25 16:30:38;;;;;;;20.60;6.63;;;;;;;;;;4952856;29;20448;-73
2023/08/25 16:33:04;;;;;;;12.47;6.47;;;;;;;;;;4953836;29;20413;-74
2023/08/25 16:35:30;;;;;;;10.97;6.03;;;;;;;;;;4953290;29;20429;-73
2023/08/25 16:37:56;;;;;;;9.80;6.17;;;;;;;;;;4953646;29;20431;-74
2023/08/25 16:40:26;;;;;;;9.10;5.90;;;;;;;;;;4953839;29;20863;-73
2023/08/25 16:42:52;;;;;;;9.03;5.80;;;;;;;;;;4947606;29;20425;-73
2023/08/25 16:45:18;;;;;;;8.33;5.80;;;;;;;;;;4933050;29;20839;-73
2023/08/25 16:47:44;;;;;;;8.90;5.97;;;;;;;;;;4946142;29;20478;-74
2023/08/25 16:50:10;;;;;;;11.43;6.00;;;;;;;;;;4947303;29;20709;-73
2023/08/25 16:52:36;;;;;;;8.23;5.70;;;;;;;;;;4934778;29;20439;-73
2023/08/25 16:55:02;;;;;;;8.00;5.97;;;;;;;;;;4934292;29;20414;-74
2023/08/25 16:57:28;;;;;;;9.10;5.53;;;;;;;;;;4931831;29;20437;-73
2023/08/25 16:59:54;;;;;;;7.60;5.87;;;;;;;;;;4944530;29;20792;-74
2023/08/25 17:02:20;;;;;;;7.90;6.00;;;;;;;;;;4953686;28;20978;-73
2023/08/25 17:04:46;;;;;;;9.70;6.30;;;;;;;;;;4952107;28;20460;-73
2023/08/25 17:07:14;;;;;;;13.17;6.10;;;;;;;;;;4953420;29;20432;-74
2023/08/25 17:09:40;;;;;;;8.23;5.97;;;;;;;;;;4951909;29;20417;-73
2023/08/25 17:12:06;;;;;;;7.20;5.17;;;;;;;;;;4953807;29;20854;-73
2023/08/25 17:14:32;;;;;;;9.93;5.83;;;;;;;;;;4953795;29;20408;-73
2023/08/25 17:16:58;;;;;;;8.83;5.47;;;;;;;;;;4951807;29;20448;-74
2023/08/25 17:19:24;;;;;;;7.10;5.37;;;;;;;;;;4952176;29;20425;-74
2023/08/25 17:21:50;;;;;;;9.13;6.13;;;;;;;;;;4953354;29;20496;-73
2023/08/25 17:24:16;;;;;;;11.37;6.60;;;;;;;;;;4952744;29;20511;-73
2023/08/25 17:26:43;;;;;;;13.23;5.60;;;;;;;;;;4953171;29;20432;-73
2023/08/25 17:29:09;;;;;;;10.17;6.67;;;;;;;;;;4953353;28;20417;-74
2023/08/25 17:31:37;;;;;;;8.27;5.27;;;;;;;;;;4951101;29;20879;-73
2023/08/25 17:34:03;;;;;;;7.60;5.47;;;;;;;;;;4934174;29;20577;-74
2023/08/25 17:36:29;;;;;;;8.63;5.63;;;;;;;;;;4932603;29;20500;-74
2023/08/25 17:38:55;;;;;;;10.33;5.60;;;;;;;;;;4933779;29;20422;-74
2023/08/25 17:41:21;;;;;;;11.90;5.73;;;;;;;;;;4938175;29;20536;-74
2023/08/25 17:43:47;;;;;;;11.80;5.80;;;;;;;;;;4937763;29;20480;-73
2023/08/25 17:46:14;;;;;;;6.97;5.03;;;;;;;;;;4959405;23;20472;-74
2023/08/25 17:48:40;;;;;;;12.23;6.20;;;;;;;;;;4957192;28;20515;-74
2023/08/25 17:51:06;;;;;;;9.17;5.40;;;;;;;;;;4957388;29;20504;-74
2023/08/25 17:53:34;;;;;;;9.90;6.00;;;;;;;;;;4957684;29;20763;-74
2023/08/25 17:56:00;;;;;;;10.33;6.30;;;;;;;;;;4957582;29;20436;-73
2023/08/25 17:58:27;;;;;;;8.20;6.07;;;;;;;;;;4957547;29;20412;-74
2023/08/25 18:01:06;;;;;;;9.77;6.57;;;;;;;;;;4957723;29;20397;-74
2023/08/25 18:03:33;;;;;;;9.13;5.17;;;;;;;;;;4957377;29;20393;-75
2023/08/25 18:06:02;;;;;;;9.37;5.40;;;;;;;;;;4957048;29;21058;-74
2023/08/25 18:08:28;;;;;;;10.63;4.80;;;;;;;;;;4957051;29;20835;-74
2023/08/25 18:10:55;;;;;;;11.30;6.27;;;;;;;;;;4956758;29;20460;-74
2023/08/25 18:13:21;;;;;;;8.00;5.40;;;;;;;;;;4956897;29;20427;-74
2023/08/25 18:15:54;;;;;;;8.03;5.63;;;;;;;;;;4956583;29;20416;-74
2023/08/25 18:18:20;;;;;;;14.20;7.30;;;;;;;;;;4956421;29;20804;-74
2023/08/25 18:20:55;;;;;;;9.70;6.27;;;;;;;;;;4956806;29;20415;-74
2023/08/25 18:23:21;;;;;;;8.47;6.30;;;;;;;;;;4955556;29;20778;-73
2023/08/25 18:25:47;;;;;;;6.80;5.37;;;;;;;;;;4956357;29;20456;-74
2023/08/25 18:28:12;;;;;;;11.13;6.80;;;;;;;;;;4956100;29;20429;-74
2023/08/25 18:30:38;;;;;;;11.70;7.23;;;;;;;;;;4956840;29;20432;-73
2023/08/25 18:33:06;;;;;;;9.60;6.67;;;;;;;;;;4956433;29;20481;-74
2023/08/25 18:35:32;;;;;;;8.80;6.10;;;;;;;;;;4956464;29;20902;-74
2023/08/25 18:37:58;;;;;;;9.23;6.73;;;;;;;;;;4955872;29;20433;-74
2023/08/25 18:40:24;;;;;;;8.90;6.17;;;;;;;;;;4955086;29;20431;-74
2023/08/25 18:42:50;;;;;;;11.63;6.53;;;;;;;;;;4954894;29;20480;-73
2023/08/25 18:45:16;;;;;;;11.60;7.73;;;;;;;;;;4956071;29;20499;-73
2023/08/25 18:47:42;;;;;;;14.37;9.30;;;;;;;;;;4948960;29;20846;-73
2023/08/25 18:50:10;;;;;;;12.93;7.73;;;;;;;;;;4946553;29;20500;-73
2023/08/25 18:52:36;;;;;;;13.57;6.73;;;;;;;;;;4954309;28;20771;-75
2023/08/25 18:55:02;;;;;;;12.73;9.33;;;;;;;;;;4955725;29;20432;-73
2023/08/25 18:57:28;;;;;;;13.23;8.70;;;;;;;;;;4955367;29;20807;-73
2023/08/25 18:59:54;;;;;;;19.67;9.10;;;;;;;;;;4955302;29;20831;-73
2023/08/25 19:02:23;;;;;;;12.03;8.20;;;;;;;;;;4955898;29;20468;-73
2023/08/25 19:04:49;;;;;;;13.37;8.20;;;;;;;;;;4955960;29;20467;-73
2023/08/25 19:07:15;;;;;;;11.90;7.20;;;;;;;;;;4955789;29;20957;-73
2023/08/25 19:09:45;;;;;;;12.70;7.90;;;;;;;;;;4955419;29;20895;-73
2023/08/25 19:12:11;;;;;;;13.43;7.43;;;;;;;;;;4953890;29;20424;-73
2023/08/25 19:14:37;;;;;;;22.10;10.67;;;;;;;;;;4939366;29;20433;-73
2023/08/25 19:17:03;;;;;;;16.03;8.80;;;;;;;;;;4954932;29;20480;-73
2023/08/25 19:19:29;;;;;;;10.83;7.63;;;;;;;;;;4955287;29;20428;-73